Aérodrome :
LOGIN :

S'inscrire | Disclaimer

   EN    FR    IT 

 










Légende :    VFR   VFR Marginal   IFR   IFR Intensif   IFR Très Intensif
Visi : 
Plafond : 
>= 8 km
>= 3000ft
5 à 8 km
1000 à 3000 ft
1500m à 5 km
500 à 1000 ft
800 à 1500m
200 à 500 ft
< 800m
< 200 ft
Symboles :   Orages  Brouillard  Fortes neiges  Fortes précipitations  Vent > 20 kt
SIGMETs :   Divers  Orages  Givrage  Turbulence  Onde Orograph.  Cendres Volcan.







- Altitude de l'aérodrome : 1768 ft


LEHC - Huesca Pirineos

DERNIER METAR :
  • 170730Z VRB02KT CAVOK 20/12 Q1021

METARs EXPIRÉS :
  • 170700Z VRB02KT CAVOK 19/13 Q1020
  • 170630Z AUTO VRB02KT 9999 NCD 17/13 Q1020
  • 170600Z AUTO VRB01KT 9999 NCD 15/13 Q1020
  • 170530Z AUTO 21002KT 9999 NCD 14/13 Q1020
  • 170500Z AUTO 24006KT 9999 NCD 13/12 Q1020

TAF TAF LEHC
Valide du 17 à 03h jusqu'au 18 à 03h UTC


170200Z 1703/1803 VRB03KT 9999 FEW040 TX31/1714Z TN15/1705Z
BECMG 1712/1714 23010KT
BECMG 1718/1720 10005KT
Pas de NOTAMs connus pour ce terrain.



MET'MAP, la Météo Aéronautique d'un coup d'oeil ! - Copyright ORBIFLY Décembre 2007 - Disclaimer

ORBIFLY MET'MAP TEAM :

Programmation & Développement : Alexandra Zaïnal
Conception & Développement : Baudouin d'Aumeries
Co-Programmation & Développement : Marc-Olivier Méhu
Soutien technique & logistique : Manuel Goepfert

Contact : metmap@orbifly.com




SOURCES & CREDITS :

   NOAA